createdAt,value
2018-06-05T00:01:23.143Z,23.00
2018-06-05T00:03:51.400Z,23.00
2018-06-05T00:06:19.640Z,23.00
2018-06-05T00:08:47.857Z,23.00
2018-06-05T00:11:16.091Z,23.00
2018-06-05T00:13:44.754Z,22.90
2018-06-05T00:16:13.453Z,22.90
2018-06-05T00:18:41.673Z,22.90
2018-06-05T00:21:09.904Z,22.90
2018-06-05T00:23:38.220Z,22.90
2018-06-05T00:26:06.527Z,22.90
2018-06-05T00:28:34.798Z,22.90
2018-06-05T00:31:03.081Z,22.90
2018-06-05T00:33:31.391Z,22.90
2018-06-05T00:35:59.589Z,22.90
2018-06-05T00:38:27.979Z,22.80
2018-06-05T00:40:56.350Z,22.80
2018-06-05T00:43:24.607Z,22.80
2018-06-05T00:45:52.845Z,22.80
2018-06-05T00:48:21.113Z,22.70
2018-06-05T00:50:49.622Z,22.70
2018-06-05T00:53:17.858Z,22.70
2018-06-05T00:55:46.151Z,22.60
2018-06-05T00:58:14.404Z,22.60
2018-06-05T01:00:42.704Z,22.60
2018-06-05T01:03:11.807Z,22.50
2018-06-05T01:05:40.090Z,22.50
2018-06-05T01:08:08.315Z,22.40
2018-06-05T01:10:36.528Z,22.40
2018-06-05T01:13:04.821Z,22.30
2018-06-05T01:15:33.107Z,22.30
2018-06-05T01:18:01.355Z,22.20
2018-06-05T01:20:29.599Z,22.20
2018-06-05T01:22:57.833Z,22.10
2018-06-05T01:25:26.080Z,22.10
2018-06-05T01:27:55.376Z,22.10
2018-06-05T01:30:23.589Z,22.00
2018-06-05T01:32:51.924Z,22.00
2018-06-05T01:35:20.204Z,22.00
2018-06-05T01:37:48.476Z,21.90
2018-06-05T01:40:16.755Z,21.90
2018-06-05T01:42:45.000Z,21.90
2018-06-05T01:45:13.235Z,21.80
2018-06-05T01:47:41.537Z,21.80
2018-06-05T01:50:09.785Z,21.70
2018-06-05T01:52:38.159Z,21.70
2018-06-05T01:55:06.455Z,21.70
2018-06-05T01:57:34.662Z,21.70
2018-06-05T02:02:30.952Z,21.70
2018-06-05T02:04:59.912Z,21.70
2018-06-05T02:07:28.151Z,21.60
2018-06-05T02:09:56.453Z,21.60
2018-06-05T02:12:24.692Z,21.60
2018-06-05T02:14:52.939Z,21.60
2018-06-05T02:17:21.196Z,21.50
2018-06-05T02:19:49.456Z,21.50
2018-06-05T02:22:18.230Z,21.40
2018-06-05T02:24:46.446Z,21.40
2018-06-05T02:27:14.636Z,21.40
2018-06-05T02:29:42.903Z,21.30
2018-06-05T02:32:11.293Z,21.30
2018-06-05T02:34:39.590Z,21.30
2018-06-05T02:37:07.776Z,21.30
2018-06-05T02:39:35.988Z,21.30
2018-06-05T02:42:04.372Z,21.20
2018-06-05T02:44:32.590Z,21.20
2018-06-05T02:47:00.793Z,21.20
2018-06-05T02:51:57.105Z,21.20
2018-06-05T02:54:25.595Z,21.20
2018-06-05T02:56:53.916Z,21.10
2018-06-05T02:59:22.140Z,21.10
2018-06-05T03:01:50.616Z,21.10
2018-06-05T03:04:18.867Z,21.10
2018-06-05T03:06:47.147Z,21.10
2018-06-05T03:11:43.448Z,21.10
2018-06-05T03:14:11.720Z,21.00
2018-06-05T03:16:39.995Z,21.00
2018-06-05T03:19:08.271Z,21.00
2018-06-05T03:21:36.497Z,20.90
2018-06-05T03:24:04.825Z,20.90
2018-06-05T03:26:33.117Z,20.90
2018-06-05T03:29:01.365Z,20.90
2018-06-05T03:31:29.671Z,20.90
2018-06-05T03:33:57.985Z,20.80
2018-06-05T03:36:26.708Z,20.80
2018-06-05T03:38:55.016Z,20.80
2018-06-05T03:41:23.306Z,20.80
2018-06-05T03:43:51.641Z,20.70
2018-06-05T03:46:19.947Z,20.80
2018-06-05T03:48:48.215Z,20.80
2018-06-05T03:51:16.466Z,20.80
2018-06-05T03:53:44.730Z,20.70
2018-06-05T03:56:13.137Z,20.80
2018-06-05T03:58:41.423Z,20.80
2018-06-05T04:01:09.687Z,20.80
2018-06-05T04:03:37.942Z,20.70
2018-06-05T04:06:06.192Z,20.70
2018-06-05T04:08:34.456Z,20.70
2018-06-05T04:11:02.729Z,20.70
2018-06-05T04:13:31.034Z,20.70
2018-06-05T04:15:59.256Z,20.70
2018-06-05T04:18:27.959Z,20.70
2018-06-05T04:20:56.257Z,20.70
2018-06-05T04:23:24.481Z,20.70
2018-06-05T04:25:53.318Z,20.70
2018-06-05T04:28:21.561Z,20.70
2018-06-05T04:30:49.867Z,20.70
2018-06-05T04:33:18.111Z,20.70
2018-06-05T04:35:46.411Z,20.80
2018-06-05T04:38:14.675Z,20.80
2018-06-05T04:40:42.908Z,20.80
2018-06-05T04:43:11.238Z,20.80
2018-06-05T04:45:39.622Z,20.80
2018-06-05T04:48:07.873Z,20.90
2018-06-05T04:50:36.131Z,20.90
2018-06-05T04:53:04.456Z,20.90
2018-06-05T04:55:32.755Z,21.00
2018-06-05T04:58:01.055Z,21.00
2018-06-05T05:00:29.267Z,21.00
2018-06-05T05:02:57.516Z,21.10
2018-06-05T05:05:25.839Z,21.20
2018-06-05T05:10:22.226Z,21.20
2018-06-05T05:12:51.139Z,21.30
2018-06-05T05:15:19.366Z,21.40
2018-06-05T05:17:47.663Z,21.40
2018-06-05T05:20:16.002Z,21.50
2018-06-05T05:22:44.343Z,21.60
2018-06-05T05:25:13.647Z,21.60
2018-06-05T05:27:41.924Z,21.70
2018-06-05T05:30:10.153Z,21.70
2018-06-05T05:32:38.368Z,21.80
2018-06-05T05:35:06.670Z,21.80
2018-06-05T05:37:35.383Z,21.80
2018-06-05T05:40:03.588Z,21.90
2018-06-05T05:42:33.854Z,21.90
2018-06-05T05:45:02.201Z,22.00
2018-06-05T05:47:30.431Z,22.10
2018-06-05T05:49:58.699Z,22.10
2018-06-05T05:52:26.988Z,22.20
2018-06-05T05:54:55.228Z,22.30
2018-06-05T05:57:23.504Z,22.40
2018-06-05T05:59:51.814Z,22.40
2018-06-05T06:02:20.064Z,22.50
2018-06-05T06:04:48.321Z,22.50
2018-06-05T06:07:16.702Z,22.50
2018-06-05T06:09:47.071Z,22.60
2018-06-05T06:12:15.386Z,22.70
2018-06-05T06:14:44.065Z,22.80
2018-06-05T06:17:12.295Z,22.80
2018-06-05T06:19:40.551Z,22.90
2018-06-05T06:22:08.849Z,23.00
2018-06-05T06:24:37.096Z,23.00
2018-06-05T06:27:05.393Z,23.10
2018-06-05T06:29:33.757Z,23.10
2018-06-05T06:32:01.982Z,23.10
2018-06-05T06:34:30.211Z,23.10
2018-06-05T06:36:58.521Z,23.20
2018-06-05T06:39:26.852Z,23.30
2018-06-05T06:41:55.120Z,23.40
2018-06-05T06:44:23.688Z,23.40
2018-06-05T06:46:51.960Z,23.40
2018-06-05T06:49:20.268Z,23.40
2018-06-05T06:51:48.477Z,23.50
2018-06-05T06:54:16.735Z,23.50
2018-06-05T06:56:45.081Z,23.60
2018-06-05T06:59:13.344Z,23.60
2018-06-05T07:01:41.639Z,23.70
2018-06-05T07:04:09.911Z,23.70
2018-06-05T07:06:38.168Z,23.80
2018-06-05T07:09:08.229Z,23.80
2018-06-05T07:11:37.241Z,23.90
2018-06-05T07:14:05.627Z,23.90
2018-06-05T07:16:33.861Z,24.00
2018-06-05T07:19:02.167Z,24.20
2018-06-05T07:21:30.413Z,24.30
2018-06-05T07:23:58.760Z,24.40
2018-06-05T07:26:27.036Z,24.40
2018-06-05T07:28:55.308Z,24.50
2018-06-05T07:31:23.545Z,24.50
2018-06-05T07:33:52.800Z,24.60
2018-06-05T07:36:21.071Z,24.60
2018-06-05T07:38:49.389Z,24.70
2018-06-05T07:43:45.874Z,24.80
2018-06-05T07:46:14.127Z,24.90
2018-06-05T07:48:42.415Z,25.00
2018-06-05T07:51:10.729Z,25.10
2018-06-05T07:53:38.967Z,25.20
2018-06-05T07:56:07.204Z,25.20
2018-06-05T07:58:35.440Z,25.30
2018-06-05T08:01:03.685Z,25.30
2018-06-05T08:03:31.997Z,25.40
2018-06-05T08:06:00.287Z,25.50
2018-06-05T08:08:28.531Z,25.50
2018-06-05T08:10:56.836Z,25.60
2018-06-05T08:13:25.156Z,25.60
2018-06-05T08:15:54.248Z,25.70
2018-06-05T08:18:22.495Z,25.70
2018-06-05T08:20:50.727Z,25.80
2018-06-05T08:23:19.004Z,25.80
2018-06-05T08:25:47.326Z,25.80
2018-06-05T08:28:15.655Z,25.80
2018-06-05T08:30:44.078Z,25.70
2018-06-05T08:33:12.308Z,25.70
2018-06-05T08:35:40.621Z,25.80
2018-06-05T08:38:08.866Z,25.90
2018-06-05T08:40:37.223Z,25.90
2018-06-05T08:43:05.513Z,26.00
2018-06-05T08:45:33.785Z,26.00
2018-06-05T08:48:02.035Z,26.10
2018-06-05T08:50:30.317Z,26.20
2018-06-05T08:52:58.586Z,26.30
2018-06-05T08:55:26.883Z,26.30
2018-06-05T08:57:55.198Z,26.50
2018-06-05T09:02:51.796Z,26.60
2018-06-05T09:05:20.087Z,26.70
2018-06-05T09:07:48.298Z,26.80
2018-06-05T09:10:16.564Z,26.90
2018-06-05T09:12:44.969Z,26.90
2018-06-05T09:15:13.209Z,27.00
2018-06-05T09:17:41.541Z,27.20
2018-06-05T09:20:09.775Z,27.30
2018-06-05T09:22:38.079Z,27.50
2018-06-05T09:25:06.331Z,27.70
2018-06-05T09:27:34.574Z,27.90
2018-06-05T09:30:02.856Z,28.10
2018-06-05T09:32:31.135Z,28.30
2018-06-05T09:34:59.410Z,28.70
2018-06-05T09:37:27.690Z,29.00
2018-06-05T09:39:55.931Z,29.30
2018-06-05T09:42:24.220Z,29.60
2018-06-05T09:44:53.079Z,29.80
2018-06-05T09:47:21.376Z,30.20
2018-06-05T09:49:49.643Z,30.50
2018-06-05T09:52:17.877Z,30.70
2018-06-05T09:54:46.165Z,30.70
2018-06-05T09:57:14.411Z,30.40
2018-06-05T09:59:42.673Z,30.00
2018-06-05T10:02:10.887Z,29.60
2018-06-05T10:04:39.116Z,29.60
2018-06-05T10:07:07.435Z,29.60
2018-06-05T10:09:35.677Z,29.30
2018-06-05T10:12:03.962Z,29.10
2018-06-05T10:14:32.188Z,28.80
2018-06-05T10:17:00.392Z,28.50
2018-06-05T10:21:56.750Z,28.10
2018-06-05T10:24:25.042Z,27.90
2018-06-05T10:26:53.257Z,27.80
2018-06-05T10:29:21.458Z,27.70
2018-06-05T10:31:49.755Z,27.70
2018-06-05T10:34:18.087Z,27.60
2018-06-05T10:36:46.360Z,27.50
2018-06-05T10:39:14.576Z,27.40
2018-06-05T10:41:42.815Z,27.40
2018-06-05T10:44:11.091Z,27.50
2018-06-05T10:46:39.462Z,27.50
2018-06-05T10:49:07.713Z,27.60
2018-06-05T10:51:36.031Z,27.70
2018-06-05T10:54:04.269Z,27.70
2018-06-05T10:56:32.627Z,27.70
2018-06-05T10:59:00.869Z,27.70
2018-06-05T11:03:58.311Z,27.60
2018-06-05T11:06:26.581Z,27.60
2018-06-05T11:08:54.870Z,27.60
2018-06-05T11:11:23.119Z,27.70
2018-06-05T11:13:51.352Z,27.70
2018-06-05T11:16:19.599Z,27.80
2018-06-05T11:18:47.835Z,27.80
2018-06-05T11:21:16.112Z,27.80
2018-06-05T11:23:44.350Z,27.80
2018-06-05T11:26:12.611Z,27.90
2018-06-05T11:28:40.895Z,27.90
2018-06-05T11:31:09.138Z,27.80
2018-06-05T11:33:37.425Z,27.70
2018-06-05T11:36:05.732Z,27.70
2018-06-05T11:38:33.976Z,27.80
2018-06-05T11:41:02.255Z,27.80
2018-06-05T11:43:30.489Z,27.90
2018-06-05T11:45:58.810Z,28.00
2018-06-05T11:48:27.082Z,27.90
2018-06-05T11:50:55.319Z,27.90
2018-06-05T11:53:23.590Z,27.90
2018-06-05T11:55:52.053Z,27.80
2018-06-05T11:58:20.400Z,27.80
2018-06-05T12:00:48.699Z,27.80
2018-06-05T12:05:45.651Z,27.70
2018-06-05T12:08:13.907Z,27.80
2018-06-05T12:10:42.214Z,27.80
2018-06-05T12:13:10.479Z,27.90
2018-06-05T12:15:38.727Z,28.00
2018-06-05T12:18:07.435Z,28.00
2018-06-05T12:20:35.687Z,28.10
2018-06-05T12:23:04.053Z,28.20
2018-06-05T12:25:32.329Z,28.30
2018-06-05T12:28:00.539Z,28.40
2018-06-05T12:30:28.755Z,28.50
2018-06-05T12:32:57.065Z,28.60
2018-06-05T12:35:25.427Z,28.60
2018-06-05T12:37:53.796Z,28.60
2018-06-05T12:40:22.077Z,28.50
2018-06-05T12:42:50.300Z,28.50
2018-06-05T12:45:18.586Z,28.50
2018-06-05T12:47:46.910Z,28.50
2018-06-05T12:50:15.160Z,28.50
2018-06-05T12:52:43.711Z,28.60
2018-06-05T12:55:12.009Z,28.70
2018-06-05T12:57:40.275Z,28.70
2018-06-05T13:00:08.629Z,28.80
2018-06-05T13:02:36.876Z,28.80
2018-06-05T13:05:05.285Z,28.90
2018-06-05T13:07:33.603Z,29.00
2018-06-05T13:10:01.919Z,29.00
2018-06-05T13:12:30.215Z,28.90
2018-06-05T13:14:58.471Z,28.80
2018-06-05T13:17:26.719Z,28.70
2018-06-05T13:19:54.900Z,28.70
2018-06-05T13:22:23.194Z,28.70
2018-06-05T13:27:19.519Z,28.70
2018-06-05T13:29:47.797Z,28.70
2018-06-05T13:32:16.018Z,28.60
2018-06-05T13:34:44.336Z,28.60
2018-06-05T13:37:12.688Z,28.60
2018-06-05T13:39:40.951Z,28.60
2018-06-05T13:42:09.766Z,28.70
2018-06-05T13:44:38.029Z,28.60
2018-06-05T13:47:06.317Z,28.70
2018-06-05T13:49:34.625Z,28.70
2018-06-05T13:52:02.890Z,28.60
2018-06-05T13:54:31.123Z,28.70
2018-06-05T13:56:59.400Z,28.70
2018-06-05T13:59:27.616Z,28.70
2018-06-05T14:01:55.966Z,28.80
2018-06-05T14:04:24.191Z,28.90
2018-06-05T14:06:52.408Z,29.00
2018-06-05T14:09:20.822Z,29.00
2018-06-05T14:11:49.028Z,29.10
2018-06-05T14:14:17.343Z,29.10
2018-06-05T14:16:45.611Z,29.00
2018-06-05T14:19:13.904Z,28.90
2018-06-05T14:21:42.175Z,28.70
2018-06-05T14:24:10.387Z,28.70
2018-06-05T14:26:38.688Z,28.70
2018-06-05T14:29:06.954Z,28.80
2018-06-05T14:31:35.225Z,28.80
2018-06-05T14:34:04.253Z,28.90
2018-06-05T14:36:32.537Z,29.00
2018-06-05T14:41:28.902Z,29.20
2018-06-05T14:43:57.206Z,29.20
2018-06-05T14:46:25.495Z,29.30
2018-06-05T14:48:53.753Z,29.30
2018-06-05T14:51:22.079Z,29.40
2018-06-05T14:53:50.347Z,29.30
2018-06-05T14:56:18.672Z,29.30
2018-06-05T14:58:46.955Z,29.30
2018-06-05T15:03:45.390Z,29.30
2018-06-05T15:06:13.838Z,29.30
2018-06-05T15:08:42.152Z,29.40
2018-06-05T15:11:10.453Z,29.30
2018-06-05T15:13:38.704Z,29.30
2018-06-05T15:16:06.983Z,29.30
2018-06-05T15:18:35.232Z,29.40
2018-06-05T15:21:03.472Z,29.40
2018-06-05T15:23:31.765Z,29.40
2018-06-05T15:26:00.035Z,29.40
2018-06-05T15:28:28.393Z,29.50
2018-06-05T15:30:56.706Z,29.50
2018-06-05T15:33:24.961Z,29.40
2018-06-05T15:35:53.227Z,29.40
2018-06-05T15:38:21.506Z,29.40
2018-06-05T15:40:49.872Z,29.40
2018-06-05T15:43:18.155Z,29.40
2018-06-05T15:45:46.988Z,29.40
2018-06-05T15:48:15.216Z,29.40
2018-06-05T15:50:43.492Z,29.30
2018-06-05T15:53:12.332Z,29.30
2018-06-05T15:55:40.569Z,29.30
2018-06-05T15:58:08.800Z,29.30
2018-06-05T16:00:37.096Z,29.20
2018-06-05T16:03:05.428Z,29.20
2018-06-05T16:05:33.833Z,29.20
2018-06-05T16:08:02.415Z,29.20
2018-06-05T16:10:31.062Z,29.20
2018-06-05T16:12:59.306Z,29.10
2018-06-05T16:15:27.586Z,29.10
2018-06-05T16:17:55.864Z,29.20
2018-06-05T16:20:24.116Z,29.30
2018-06-05T16:22:52.351Z,29.30
2018-06-05T16:25:20.693Z,29.30
2018-06-05T16:27:48.960Z,29.30
2018-06-05T16:30:17.290Z,29.30
2018-06-05T16:32:45.614Z,29.30
2018-06-05T16:35:13.905Z,29.30
2018-06-05T16:37:42.208Z,29.30
2018-06-05T16:40:11.840Z,29.30
2018-06-05T16:42:40.136Z,29.30
2018-06-05T16:45:08.701Z,29.30
2018-06-05T16:47:36.962Z,29.20
2018-06-05T16:50:05.211Z,29.10
2018-06-05T16:52:33.473Z,29.00
2018-06-05T16:55:01.824Z,28.90
2018-06-05T16:57:30.112Z,28.90
2018-06-05T16:59:58.408Z,28.90
2018-06-05T17:02:26.694Z,28.90
2018-06-05T17:04:54.930Z,28.90
2018-06-05T17:07:23.226Z,28.90
2018-06-05T17:09:51.560Z,28.90
2018-06-05T17:12:19.887Z,28.90
2018-06-05T17:14:48.105Z,28.90
2018-06-05T17:17:16.395Z,28.90
2018-06-05T17:19:44.755Z,28.80
2018-06-05T17:22:12.973Z,28.80
2018-06-05T17:24:41.249Z,28.70
2018-06-05T17:27:09.558Z,28.70
2018-06-05T17:29:37.868Z,28.70
2018-06-05T17:32:06.184Z,28.70
2018-06-05T17:34:34.460Z,28.70
2018-06-05T17:37:02.771Z,28.70
2018-06-05T17:39:31.056Z,28.60
2018-06-05T17:41:59.369Z,28.60
2018-06-05T17:44:27.708Z,28.60
2018-06-05T17:46:55.994Z,28.50
2018-06-05T17:49:24.243Z,28.40
2018-06-05T17:51:52.528Z,28.40
2018-06-05T17:54:20.852Z,28.30
2018-06-05T17:56:49.221Z,28.30
2018-06-05T17:59:17.490Z,28.20
2018-06-05T18:01:45.767Z,28.10
2018-06-05T18:04:14.036Z,28.10
2018-06-05T18:06:42.312Z,28.10
2018-06-05T18:09:10.604Z,28.00
2018-06-05T18:11:38.841Z,28.00
2018-06-05T18:14:07.099Z,27.90
2018-06-05T18:16:35.408Z,27.80
2018-06-05T18:19:03.667Z,27.80
2018-06-05T18:21:32.085Z,27.80
2018-06-05T18:24:00.330Z,27.70
2018-06-05T18:26:29.388Z,27.70
2018-06-05T18:28:57.693Z,27.60
2018-06-05T18:31:25.998Z,27.50
2018-06-05T18:33:54.319Z,27.50
2018-06-05T18:36:22.571Z,27.50
2018-06-05T18:38:50.854Z,27.40
2018-06-05T18:41:19.108Z,27.40
2018-06-05T18:43:47.433Z,27.30
2018-06-05T18:46:15.795Z,27.30
2018-06-05T18:48:44.059Z,27.20
2018-06-05T18:51:12.371Z,27.20
2018-06-05T18:53:40.632Z,27.10
2018-06-05T18:56:08.873Z,27.00
2018-06-05T18:58:37.187Z,27.00
2018-06-05T19:01:05.508Z,26.90
2018-06-05T19:03:33.768Z,26.90
2018-06-05T19:06:02.032Z,26.90
2018-06-05T19:08:31.480Z,26.90
2018-06-05T19:10:59.845Z,26.80
2018-06-05T19:13:28.126Z,26.80
2018-06-05T19:15:56.330Z,26.70
2018-06-05T19:18:24.584Z,26.60
2018-06-05T19:20:52.868Z,26.60
2018-06-05T19:23:21.217Z,26.60
2018-06-05T19:25:49.503Z,26.50
2018-06-05T19:28:17.806Z,26.50
2018-06-05T19:30:46.846Z,26.50
2018-06-05T19:33:15.093Z,26.50
2018-06-05T19:35:43.475Z,26.40
2018-06-05T19:38:11.823Z,26.30
2018-06-05T19:40:40.133Z,26.30
2018-06-05T19:43:08.429Z,26.20
2018-06-05T19:45:36.749Z,26.10
2018-06-05T19:48:05.108Z,26.10
2018-06-05T19:50:33.465Z,26.00
2018-06-05T19:53:01.781Z,26.00
2018-06-05T19:55:30.039Z,26.00
2018-06-05T19:57:58.924Z,25.90
2018-06-05T20:00:27.244Z,25.90
2018-06-05T20:02:55.506Z,25.80
2018-06-05T20:05:23.765Z,25.80
2018-06-05T20:07:51.998Z,25.80
2018-06-05T20:10:20.200Z,25.70
2018-06-05T20:12:49.605Z,25.70
2018-06-05T20:15:17.874Z,25.70
2018-06-05T20:17:46.113Z,25.60
2018-06-05T20:20:14.409Z,25.50
2018-06-05T20:22:42.731Z,25.50
2018-06-05T20:25:11.056Z,25.40
2018-06-05T20:27:39.325Z,25.40
2018-06-05T20:30:07.663Z,25.30
2018-06-05T20:32:35.908Z,25.30
2018-06-05T20:35:04.437Z,25.20
2018-06-05T20:37:32.878Z,25.20
2018-06-05T20:40:01.114Z,25.10
2018-06-05T20:42:29.355Z,25.10
2018-06-05T20:44:57.667Z,25.00
2018-06-05T20:47:25.972Z,25.00
2018-06-05T20:49:54.302Z,25.00
2018-06-05T20:52:22.547Z,25.00
2018-06-05T20:54:51.142Z,24.90
2018-06-05T20:57:19.387Z,24.90
2018-06-05T20:59:47.714Z,24.80
2018-06-05T21:02:16.112Z,24.80
2018-06-05T21:04:44.450Z,24.80
2018-06-05T21:07:12.868Z,24.80
2018-06-05T21:09:41.205Z,24.70
2018-06-05T21:12:09.499Z,24.60
2018-06-05T21:14:37.857Z,24.60
2018-06-05T21:17:06.203Z,24.60
2018-06-05T21:19:34.431Z,24.50
2018-06-05T21:22:02.748Z,24.50
2018-06-05T21:24:31.048Z,24.40
2018-06-05T21:26:59.466Z,24.40
2018-06-05T21:29:27.691Z,24.40
2018-06-05T21:31:55.994Z,24.40
2018-06-05T21:34:24.276Z,24.40
2018-06-05T21:36:52.548Z,24.30
2018-06-05T21:39:20.931Z,24.30
2018-06-05T21:41:49.229Z,24.20
2018-06-05T21:44:17.517Z,24.20
2018-06-05T21:46:45.831Z,24.20
2018-06-05T21:49:14.207Z,24.20
2018-06-05T21:51:42.601Z,24.20
2018-06-05T21:54:11.456Z,24.20
2018-06-05T21:56:39.769Z,24.10
2018-06-05T21:59:08.060Z,24.10
2018-06-05T22:01:36.384Z,24.10
2018-06-05T22:04:06.483Z,24.00
2018-06-05T22:06:34.771Z,24.00
2018-06-05T22:09:03.420Z,23.90
2018-06-05T22:11:31.723Z,23.80
2018-06-05T22:14:00.148Z,23.80
2018-06-05T22:16:28.500Z,23.80
2018-06-05T22:18:56.735Z,23.80
2018-06-05T22:21:25.128Z,23.70
2018-06-05T22:23:53.397Z,23.70
2018-06-05T22:26:21.639Z,23.70
2018-06-05T22:28:50.014Z,23.70
2018-06-05T22:31:18.233Z,23.70
2018-06-05T22:33:46.540Z,23.70
2018-06-05T22:36:14.876Z,23.60
2018-06-05T22:38:43.104Z,23.60
2018-06-05T22:41:11.404Z,23.50
2018-06-05T22:43:39.767Z,23.50
2018-06-05T22:46:08.093Z,23.50
2018-06-05T22:48:36.425Z,23.50
2018-06-05T22:51:05.558Z,23.40
2018-06-05T22:53:33.916Z,23.40
2018-06-05T22:56:02.150Z,23.40
2018-06-05T22:58:30.461Z,23.40
2018-06-05T23:00:58.879Z,23.30
2018-06-05T23:03:27.619Z,23.30
2018-06-05T23:05:56.075Z,23.30
2018-06-05T23:08:24.420Z,23.30
2018-06-05T23:10:52.690Z,23.20
2018-06-05T23:13:20.992Z,23.20
2018-06-05T23:15:49.319Z,23.20
2018-06-05T23:18:18.168Z,23.10
2018-06-05T23:20:46.478Z,23.10
2018-06-05T23:23:14.894Z,23.10
2018-06-05T23:25:43.158Z,23.10
2018-06-05T23:28:11.427Z,23.00
2018-06-05T23:30:39.729Z,23.00
2018-06-05T23:33:08.010Z,23.00
2018-06-05T23:35:36.250Z,23.00
2018-06-05T23:38:04.636Z,22.90
2018-06-05T23:40:32.949Z,22.90
2018-06-05T23:43:01.287Z,22.90
2018-06-05T23:45:29.576Z,22.80
2018-06-05T23:47:57.850Z,22.80
2018-06-05T23:50:26.120Z,22.70
2018-06-05T23:52:55.044Z,22.70
2018-06-05T23:57:51.383Z,22.60
